sensor_id;sensor_type;location;lat;lon;timestamp;pressure;altitude;pressure_sealevel;temperature;humidity
23574;BME280;11965;53.640;10.050;2023-09-08T00:00:26;101961.56;;;15.01;100.00
23574;BME280;11965;53.640;10.050;2023-09-08T00:02:52;101970.34;;;14.98;100.00
23574;BME280;11965;53.640;10.050;2023-09-08T00:05:19;101963.91;;;14.98;100.00
23574;BME280;11965;53.640;10.050;2023-09-08T00:07:46;101964.13;;;14.96;100.00
23574;BME280;11965;53.640;10.050;2023-09-08T00:10:13;101963.22;;;14.96;100.00
23574;BME280;11965;53.640;10.050;2023-09-08T00:12:40;101967.09;;;14.95;100.00
23574;BME280;11965;53.640;10.050;2023-09-08T00:15:09;101961.69;;;14.93;100.00
23574;BME280;11965;53.640;10.050;2023-09-08T00:17:36;101959.31;;;14.90;100.00
23574;BME280;11965;53.640;10.050;2023-09-08T00:20:07;101964.59;;;14.85;100.00
23574;BME280;11965;53.640;10.050;2023-09-08T00:22:35;101961.16;;;14.83;100.00
23574;BME280;11965;53.640;10.050;2023-09-08T00:25:02;101963.47;;;14.79;100.00
23574;BME280;11965;53.640;10.050;2023-09-08T00:27:29;101957.41;;;14.76;100.00
23574;BME280;11965;53.640;10.050;2023-09-08T00:29:56;101952.69;;;14.76;100.00
23574;BME280;11965;53.640;10.050;2023-09-08T00:32:24;101958.50;;;14.75;100.00
23574;BME280;11965;53.640;10.050;2023-09-08T00:34:51;101954.34;;;14.71;100.00
23574;BME280;11965;53.640;10.050;2023-09-08T00:37:18;101956.28;;;14.70;100.00
23574;BME280;11965;53.640;10.050;2023-09-08T00:39:45;101950.03;;;14.68;100.00
23574;BME280;11965;53.640;10.050;2023-09-08T00:42:12;101950.88;;;14.69;100.00
23574;BME280;11965;53.640;10.050;2023-09-08T00:44:40;101948.31;;;14.67;100.00
23574;BME280;11965;53.640;10.050;2023-09-08T00:47:07;101947.16;;;14.62;100.00
23574;BME280;11965;53.640;10.050;2023-09-08T00:49:35;101948.69;;;14.64;100.00
23574;BME280;11965;53.640;10.050;2023-09-08T00:52:02;101933.56;;;14.58;100.00
23574;BME280;11965;53.640;10.050;2023-09-08T00:54:29;101927.13;;;14.58;100.00
23574;BME280;11965;53.640;10.050;2023-09-08T00:57:01;101929.75;;;14.60;100.00
23574;BME280;11965;53.640;10.050;2023-09-08T00:59:29;101928.00;;;14.58;100.00
23574;BME280;11965;53.640;10.050;2023-09-08T01:01:57;101936.84;;;14.62;100.00
23574;BME280;11965;53.640;10.050;2023-09-08T01:04:24;101926.94;;;14.60;100.00
23574;BME280;11965;53.640;10.050;2023-09-08T01:06:54;101922.91;;;14.62;100.00
23574;BME280;11965;53.640;10.050;2023-09-08T01:09:24;101927.88;;;14.67;100.00
23574;BME280;11965;53.640;10.050;2023-09-08T01:11:51;101936.75;;;14.70;100.00
23574;BME280;11965;53.640;10.050;2023-09-08T01:14:18;101921.94;;;14.70;100.00
23574;BME280;11965;53.640;10.050;2023-09-08T01:16:46;101930.38;;;14.76;100.00
23574;BME280;11965;53.640;10.050;2023-09-08T01:19:14;101936.84;;;14.98;100.00
23574;BME280;11965;53.640;10.050;2023-09-08T01:22:08;101930.66;;;15.18;100.00
23574;BME280;11965;53.640;10.050;2023-09-08T01:27:38;101927.94;;;15.10;100.00
23574;BME280;11965;53.640;10.050;2023-09-08T01:30:07;101933.28;;;15.05;100.00
23574;BME280;11965;53.640;10.050;2023-09-08T01:32:35;101928.47;;;14.98;100.00
23574;BME280;11965;53.640;10.050;2023-09-08T01:35:02;101936.44;;;15.01;100.00
23574;BME280;11965;53.640;10.050;2023-09-08T01:37:31;101927.84;;;14.96;100.00
23574;BME280;11965;53.640;10.050;2023-09-08T01:39:58;101928.69;;;14.97;100.00
23574;BME280;11965;53.640;10.050;2023-09-08T01:42:25;101922.25;;;14.96;100.00
23574;BME280;11965;53.640;10.050;2023-09-08T01:44:54;101921.84;;;14.99;100.00
23574;BME280;11965;53.640;10.050;2023-09-08T01:47:20;101919.50;;;15.03;100.00
23574;BME280;11965;53.640;10.050;2023-09-08T01:49:48;101912.00;;;15.03;100.00
23574;BME280;11965;53.640;10.050;2023-09-08T01:52:15;101913.34;;;15.08;100.00
23574;BME280;11965;53.640;10.050;2023-09-08T01:54:42;101911.13;;;15.03;100.00
23574;BME280;11965;53.640;10.050;2023-09-08T01:57:09;101905.75;;;15.01;100.00
23574;BME280;11965;53.640;10.050;2023-09-08T01:59:36;101910.19;;;14.96;100.00
23574;BME280;11965;53.640;10.050;2023-09-08T02:02:05;101909.28;;;14.89;100.00
23574;BME280;11965;53.640;10.050;2023-09-08T02:04:32;101912.91;;;14.89;100.00
23574;BME280;11965;53.640;10.050;2023-09-08T02:06:59;101910.19;;;14.96;100.00
23574;BME280;11965;53.640;10.050;2023-09-08T02:09:30;101898.38;;;14.94;100.00
23574;BME280;11965;53.640;10.050;2023-09-08T02:11:57;101899.63;;;14.91;100.00
23574;BME280;11965;53.640;10.050;2023-09-08T02:14:24;101901.75;;;14.89;100.00
23574;BME280;11965;53.640;10.050;2023-09-08T02:16:51;101900.91;;;14.89;100.00
23574;BME280;11965;53.640;10.050;2023-09-08T02:19:19;101899.63;;;14.91;100.00
23574;BME280;11965;53.640;10.050;2023-09-08T02:21:46;101894.81;;;14.85;100.00
23574;BME280;11965;53.640;10.050;2023-09-08T02:24:13;101893.84;;;14.93;100.00
23574;BME280;11965;53.640;10.050;2023-09-08T02:26:41;101897.31;;;14.95;100.00
23574;BME280;11965;53.640;10.050;2023-09-08T02:29:08;101903.16;;;15.00;100.00
23574;BME280;11965;53.640;10.050;2023-09-08T02:31:36;101904.59;;;14.96;100.00
23574;BME280;11965;53.640;10.050;2023-09-08T02:34:05;101899.44;;;14.93;100.00
23574;BME280;11965;53.640;10.050;2023-09-08T02:36:33;101896.91;;;14.98;100.00
23574;BME280;11965;53.640;10.050;2023-09-08T02:39:00;101896.22;;;14.96;100.00
23574;BME280;11965;53.640;10.050;2023-09-08T02:41:27;101908.00;;;14.91;100.00
23574;BME280;11965;53.640;10.050;2023-09-08T02:43:54;101896.75;;;14.85;100.00
23574;BME280;11965;53.640;10.050;2023-09-08T02:46:21;101898.22;;;14.80;100.00
23574;BME280;11965;53.640;10.050;2023-09-08T02:48:48;101905.47;;;14.75;100.00
23574;BME280;11965;53.640;10.050;2023-09-08T02:51:15;101902.41;;;14.70;100.00
23574;BME280;11965;53.640;10.050;2023-09-08T02:53:43;101901.03;;;14.66;100.00
23574;BME280;11965;53.640;10.050;2023-09-08T02:56:10;101903.56;;;14.61;100.00
23574;BME280;11965;53.640;10.050;2023-09-08T02:58:37;101901.34;;;14.56;100.00
23574;BME280;11965;53.640;10.050;2023-09-08T03:01:11;101898.44;;;14.49;100.00
23574;BME280;11965;53.640;10.050;2023-09-08T03:03:39;101897.78;;;14.47;100.00
23574;BME280;11965;53.640;10.050;2023-09-08T03:06:06;101904.13;;;14.41;100.00
23574;BME280;11965;53.640;10.050;2023-09-08T03:08:33;101898.47;;;14.34;100.00
23574;BME280;11965;53.640;10.050;2023-09-08T03:11:05;101891.56;;;14.30;100.00
23574;BME280;11965;53.640;10.050;2023-09-08T03:13:33;101894.91;;;14.26;100.00
23574;BME280;11965;53.640;10.050;2023-09-08T03:16:04;101902.41;;;14.25;100.00
23574;BME280;11965;53.640;10.050;2023-09-08T03:18:32;101902.13;;;14.20;100.00
23574;BME280;11965;53.640;10.050;2023-09-08T03:20:59;101897.13;;;14.15;100.00
23574;BME280;11965;53.640;10.050;2023-09-08T03:23:28;101894.72;;;14.12;100.00
23574;BME280;11965;53.640;10.050;2023-09-08T03:25:55;101884.34;;;14.06;100.00
23574;BME280;11965;53.640;10.050;2023-09-08T03:28:23;101888.56;;;14.02;100.00
23574;BME280;11965;53.640;10.050;2023-09-08T03:30:51;101899.47;;;13.97;100.00
23574;BME280;11965;53.640;10.050;2023-09-08T03:33:18;101874.25;;;13.90;100.00
23574;BME280;11965;53.640;10.050;2023-09-08T03:35:45;101882.31;;;13.85;100.00
23574;BME280;11965;53.640;10.050;2023-09-08T03:38:12;101875.41;;;13.81;100.00
23574;BME280;11965;53.640;10.050;2023-09-08T03:40:40;101886.75;;;13.80;100.00
23574;BME280;11965;53.640;10.050;2023-09-08T03:43:08;101882.63;;;13.76;100.00
23574;BME280;11965;53.640;10.050;2023-09-08T03:45:36;101881.94;;;13.74;100.00
23574;BME280;11965;53.640;10.050;2023-09-08T03:48:03;101881.25;;;13.72;100.00
23574;BME280;11965;53.640;10.050;2023-09-08T03:50:30;101878.19;;;13.66;100.00
23574;BME280;11965;53.640;10.050;2023-09-08T03:52:57;101875.78;;;13.63;100.00
23574;BME280;11965;53.640;10.050;2023-09-08T03:55:24;101871.63;;;13.59;100.00
23574;BME280;11965;53.640;10.050;2023-09-08T03:57:51;101869.91;;;13.58;100.00
23574;BME280;11965;53.640;10.050;2023-09-08T04:00:19;101875.69;;;13.57;100.00
23574;BME280;11965;53.640;10.050;2023-09-08T04:02:49;101872.22;;;13.55;100.00
23574;BME280;11965;53.640;10.050;2023-09-08T04:05:17;101874.78;;;13.56;100.00
23574;BME280;11965;53.640;10.050;2023-09-08T04:07:44;101877.09;;;13.53;100.00
23574;BME280;11965;53.640;10.050;2023-09-08T04:10:11;101877.97;;;13.53;100.00
23574;BME280;11965;53.640;10.050;2023-09-08T04:12:39;101873.84;;;13.49;100.00
23574;BME280;11965;53.640;10.050;2023-09-08T04:15:07;101880.06;;;13.51;100.00
23574;BME280;11965;53.640;10.050;2023-09-08T04:17:34;101878.72;;;13.47;100.00
23574;BME280;11965;53.640;10.050;2023-09-08T04:20:05;101874.78;;;13.41;100.00
23574;BME280;11965;53.640;10.050;2023-09-08T04:22:32;101878.13;;;13.37;100.00
23574;BME280;11965;53.640;10.050;2023-09-08T04:25:00;101875.03;;;13.32;100.00
23574;BME280;11965;53.640;10.050;2023-09-08T04:27:27;101864.09;;;13.30;100.00
23574;BME280;11965;53.640;10.050;2023-09-08T04:29:54;101864.63;;;13.25;100.00
23574;BME280;11965;53.640;10.050;2023-09-08T04:32:21;101866.72;;;13.23;100.00
23574;BME280;11965;53.640;10.050;2023-09-08T04:34:48;101862.91;;;13.24;100.00
23574;BME280;11965;53.640;10.050;2023-09-08T04:37:17;101862.22;;;13.22;100.00
23574;BME280;11965;53.640;10.050;2023-09-08T04:39:44;101857.69;;;13.21;100.00
23574;BME280;11965;53.640;10.050;2023-09-08T04:42:12;101862.22;;;13.22;100.00
23574;BME280;11965;53.640;10.050;2023-09-08T04:44:40;101860.28;;;13.23;100.00
23574;BME280;11965;53.640;10.050;2023-09-08T04:47:08;101867.97;;;13.21;100.00
23574;BME280;11965;53.640;10.050;2023-09-08T04:49:34;101855.97;;;13.20;100.00
23574;BME280;11965;53.640;10.050;2023-09-08T04:52:03;101858.75;;;13.20;100.00
23574;BME280;11965;53.640;10.050;2023-09-08T04:54:33;101850.22;;;13.22;100.00
23574;BME280;11965;53.640;10.050;2023-09-08T04:57:01;101847.59;;;13.20;100.00
23574;BME280;11965;53.640;10.050;2023-09-08T04:59:28;101837.16;;;13.22;100.00
23574;BME280;11965;53.640;10.050;2023-09-08T05:01:55;101840.63;;;13.24;100.00
23574;BME280;11965;53.640;10.050;2023-09-08T05:04:22;101841.31;;;13.26;100.00
23574;BME280;11965;53.640;10.050;2023-09-08T05:06:50;101838.16;;;13.30;100.00
23574;BME280;11965;53.640;10.050;2023-09-08T05:09:18;101845.09;;;13.34;100.00
23574;BME280;11965;53.640;10.050;2023-09-08T05:11:46;101839.59;;;13.40;100.00
23574;BME280;11965;53.640;10.050;2023-09-08T05:14:13;101845.47;;;13.45;100.00
23574;BME280;11965;53.640;10.050;2023-09-08T05:16:40;101834.94;;;13.56;100.00
23574;BME280;11965;53.640;10.050;2023-09-08T05:19:15;101849.19;;;13.76;100.00
23574;BME280;11965;53.640;10.050;2023-09-08T05:21:42;101832.34;;;13.99;100.00
23574;BME280;11965;53.640;10.050;2023-09-08T05:24:09;101839.56;;;14.08;100.00
23574;BME280;11965;53.640;10.050;2023-09-08T05:26:37;101832.81;;;14.17;100.00
23574;BME280;11965;53.640;10.050;2023-09-08T05:29:06;101834.63;;;14.25;100.00
23574;BME280;11965;53.640;10.050;2023-09-08T05:31:33;101828.72;;;14.34;100.00
23574;BME280;11965;53.640;10.050;2023-09-08T05:34:00;101826.03;;;14.41;100.00
23574;BME280;11965;53.640;10.050;2023-09-08T05:36:29;101830.44;;;14.65;100.00
23574;BME280;11965;53.640;10.050;2023-09-08T05:38:57;101825.00;;;14.78;100.00
23574;BME280;11965;53.640;10.050;2023-09-08T05:41:23;101827.69;;;14.93;100.00
23574;BME280;11965;53.640;10.050;2023-09-08T05:43:50;101832.78;;;15.05;100.00
23574;BME280;11965;53.640;10.050;2023-09-08T05:46:19;101826.56;;;15.09;100.00
23574;BME280;11965;53.640;10.050;2023-09-08T05:48:45;101826.28;;;15.25;100.00
23574;BME280;11965;53.640;10.050;2023-09-08T05:51:13;101827.75;;;15.50;100.00
23574;BME280;11965;53.640;10.050;2023-09-08T05:53:41;101823.28;;;15.55;100.00
23574;BME280;11965;53.640;10.050;2023-09-08T05:56:10;101811.50;;;15.60;100.00
23574;BME280;11965;53.640;10.050;2023-09-08T05:58:40;101820.00;;;15.73;100.00
23574;BME280;11965;53.640;10.050;2023-09-08T06:01:07;101815.09;;;15.82;100.00
23574;BME280;11965;53.640;10.050;2023-09-08T06:03:36;101821.88;;;16.01;100.00
23574;BME280;11965;53.640;10.050;2023-09-08T06:06:03;101827.97;;;16.11;100.00
23574;BME280;11965;53.640;10.050;2023-09-08T06:08:30;101828.63;;;16.13;100.00
23574;BME280;11965;53.640;10.050;2023-09-08T06:10:57;101824.56;;;16.16;100.00
23574;BME280;11965;53.640;10.050;2023-09-08T06:13:24;101831.50;;;16.33;100.00
23574;BME280;11965;53.640;10.050;2023-09-08T06:15:51;101824.91;;;16.47;100.00
23574;BME280;11965;53.640;10.050;2023-09-08T06:18:18;101829.84;;;16.45;100.00
23574;BME280;11965;53.640;10.050;2023-09-08T06:20:47;101829.44;;;16.55;100.00
23574;BME280;11965;53.640;10.050;2023-09-08T06:23:15;101833.34;;;16.67;100.00
23574;BME280;11965;53.640;10.050;2023-09-08T06:25:42;101837.28;;;16.80;100.00
23574;BME280;11965;53.640;10.050;2023-09-08T06:28:09;101847.00;;;16.97;100.00
23574;BME280;11965;53.640;10.050;2023-09-08T06:30:37;101848.97;;;17.10;100.00
23574;BME280;11965;53.640;10.050;2023-09-08T06:33:07;101845.94;;;17.11;100.00
23574;BME280;11965;53.640;10.050;2023-09-08T06:35:35;101847.91;;;17.17;100.00
23574;BME280;11965;53.640;10.050;2023-09-08T06:38:05;101845.31;;;17.29;100.00
23574;BME280;11965;53.640;10.050;2023-09-08T06:40:32;101843.38;;;17.30;100.00
23574;BME280;11965;53.640;10.050;2023-09-08T06:42:59;101850.72;;;17.31;100.00
23574;BME280;11965;53.640;10.050;2023-09-08T06:45:37;101840.13;;;17.33;100.00
23574;BME280;11965;53.640;10.050;2023-09-08T06:48:05;101846.84;;;17.38;100.00
23574;BME280;11965;53.640;10.050;2023-09-08T06:50:32;101841.44;;;17.50;100.00
23574;BME280;11965;53.640;10.050;2023-09-08T06:52:59;101838.38;;;17.65;100.00
23574;BME280;11965;53.640;10.050;2023-09-08T06:55:28;101840.56;;;17.76;99.98
23574;BME280;11965;53.640;10.050;2023-09-08T06:57:55;101831.69;;;17.93;97.23
23574;BME280;11965;53.640;10.050;2023-09-08T07:00:22;101835.97;;;18.02;98.92
23574;BME280;11965;53.640;10.050;2023-09-08T07:02:49;101830.75;;;18.19;94.51
23574;BME280;11965;53.640;10.050;2023-09-08T07:05:16;101830.06;;;18.30;94.25
23574;BME280;11965;53.640;10.050;2023-09-08T07:07:43;101825.72;;;18.41;93.93
23574;BME280;11965;53.640;10.050;2023-09-08T07:10:11;101825.84;;;18.52;94.02
23574;BME280;11965;53.640;10.050;2023-09-08T07:12:39;101824.94;;;18.59;95.61
23574;BME280;11965;53.640;10.050;2023-09-08T07:15:07;101832.06;;;18.61;95.88
23574;BME280;11965;53.640;10.050;2023-09-08T07:17:34;101832.03;;;18.68;93.84
23574;BME280;11965;53.640;10.050;2023-09-08T07:20:03;101830.94;;;18.69;94.46
23574;BME280;11965;53.640;10.050;2023-09-08T07:22:30;101825.47;;;18.87;93.73
23574;BME280;11965;53.640;10.050;2023-09-08T07:24:57;101830.59;;;18.97;92.39
23574;BME280;11965;53.640;10.050;2023-09-08T07:27:24;101824.88;;;19.10;90.05
23574;BME280;11965;53.640;10.050;2023-09-08T07:29:52;101818.56;;;19.15;90.30
23574;BME280;11965;53.640;10.050;2023-09-08T07:32:19;101822.66;;;19.19;86.83
23574;BME280;11965;53.640;10.050;2023-09-08T07:34:47;101826.72;;;19.23;88.31
23574;BME280;11965;53.640;10.050;2023-09-08T07:37:20;101826.03;;;19.28;88.54
23574;BME280;11965;53.640;10.050;2023-09-08T07:39:48;101834.56;;;19.39;89.39
23574;BME280;11965;53.640;10.050;2023-09-08T07:42:15;101832.09;;;19.50;88.32
23574;BME280;11965;53.640;10.050;2023-09-08T07:44:42;101826.19;;;19.58;88.36
23574;BME280;11965;53.640;10.050;2023-09-08T07:47:11;101826.34;;;19.70;88.03
23574;BME280;11965;53.640;10.050;2023-09-08T07:49:38;101826.41;;;19.81;84.62
23574;BME280;11965;53.640;10.050;2023-09-08T07:52:05;101825.72;;;19.86;85.57
23574;BME280;11965;53.640;10.050;2023-09-08T07:54:33;101828.72;;;19.91;85.23
23574;BME280;11965;53.640;10.050;2023-09-08T07:56:59;101822.84;;;19.93;85.03
23574;BME280;11965;53.640;10.050;2023-09-08T07:59:26;101821.03;;;19.98;88.12
23574;BME280;11965;53.640;10.050;2023-09-08T08:01:53;101826.34;;;20.06;84.97
23574;BME280;11965;53.640;10.050;2023-09-08T08:04:21;101830.03;;;20.07;84.84
23574;BME280;11965;53.640;10.050;2023-09-08T08:06:48;101823.69;;;20.12;86.03
23574;BME280;11965;53.640;10.050;2023-09-08T08:09:15;101819.06;;;20.36;80.97
23574;BME280;11965;53.640;10.050;2023-09-08T08:11:42;101815.78;;;20.57;77.12
23574;BME280;11965;53.640;10.050;2023-09-08T08:14:09;101822.56;;;20.68;78.55
23574;BME280;11965;53.640;10.050;2023-09-08T08:16:35;101821.41;;;20.87;79.43
23574;BME280;11965;53.640;10.050;2023-09-08T08:19:02;101820.06;;;20.90;79.20
23574;BME280;11965;53.640;10.050;2023-09-08T08:21:30;101822.03;;;20.89;78.28
23574;BME280;11965;53.640;10.050;2023-09-08T08:23:57;101821.59;;;21.04;76.63
23574;BME280;11965;53.640;10.050;2023-09-08T08:26:24;101822.72;;;21.15;80.22
23574;BME280;11965;53.640;10.050;2023-09-08T08:28:54;101821.75;;;21.21;73.97
23574;BME280;11965;53.640;10.050;2023-09-08T08:31:20;101825.38;;;21.40;71.96
23574;BME280;11965;53.640;10.050;2023-09-08T08:33:47;101827.72;;;21.55;75.80
23574;BME280;11965;53.640;10.050;2023-09-08T08:36:14;101826.13;;;21.59;73.73
23574;BME280;11965;53.640;10.050;2023-09-08T08:38:43;101831.28;;;21.74;72.86
23574;BME280;11965;53.640;10.050;2023-09-08T08:41:10;101822.31;;;21.89;74.50
23574;BME280;11965;53.640;10.050;2023-09-08T08:43:37;101815.78;;;22.00;71.22
23574;BME280;11965;53.640;10.050;2023-09-08T08:46:04;101806.81;;;22.03;71.84
23574;BME280;11965;53.640;10.050;2023-09-08T08:48:32;101815.78;;;22.12;70.26
23574;BME280;11965;53.640;10.050;2023-09-08T08:51:00;101808.94;;;22.19;72.68
23574;BME280;11965;53.640;10.050;2023-09-08T08:53:28;101807.88;;;22.37;68.74
23574;BME280;11965;53.640;10.050;2023-09-08T08:55:59;101805.28;;;22.47;68.92
23574;BME280;11965;53.640;10.050;2023-09-08T08:58:27;101810.28;;;22.57;73.04
23574;BME280;11965;53.640;10.050;2023-09-08T09:00:56;101803.56;;;22.75;66.02
23574;BME280;11965;53.640;10.050;2023-09-08T09:03:26;101816.84;;;22.91;67.58
23574;BME280;11965;53.640;10.050;2023-09-08T09:05:54;101805.63;;;23.08;67.10
23574;BME280;11965;53.640;10.050;2023-09-08T09:08:22;101813.69;;;23.33;65.61
23574;BME280;11965;53.640;10.050;2023-09-08T09:10:51;101803.72;;;23.48;65.30
23574;BME280;11965;53.640;10.050;2023-09-08T09:13:19;101804.66;;;23.53;66.05
23574;BME280;11965;53.640;10.050;2023-09-08T09:15:48;101809.03;;;23.61;64.60
23574;BME280;11965;53.640;10.050;2023-09-08T09:18:15;101795.81;;;23.67;58.71
23574;BME280;11965;53.640;10.050;2023-09-08T09:20:53;101784.69;;;23.77;61.54
23574;BME280;11965;53.640;10.050;2023-09-08T09:23:26;101797.25;;;24.03;60.15
23574;BME280;11965;53.640;10.050;2023-09-08T09:25:53;101795.50;;;24.19;57.97
23574;BME280;11965;53.640;10.050;2023-09-08T09:28:22;101787.50;;;24.38;59.47
23574;BME280;11965;53.640;10.050;2023-09-08T09:30:49;101788.22;;;24.28;62.25
23574;BME280;11965;53.640;10.050;2023-09-08T09:33:17;101786.66;;;24.37;59.19
23574;BME280;11965;53.640;10.050;2023-09-08T09:35:45;101786.66;;;24.59;57.61
23574;BME280;11965;53.640;10.050;2023-09-08T09:38:13;101783.34;;;24.67;63.86
23574;BME280;11965;53.640;10.050;2023-09-08T09:40:40;101776.66;;;24.79;57.16
23574;BME280;11965;53.640;10.050;2023-09-08T09:43:09;101778.63;;;25.05;57.49
23574;BME280;11965;53.640;10.050;2023-09-08T09:45:39;101783.19;;;25.11;56.65
23574;BME280;11965;53.640;10.050;2023-09-08T09:48:08;101780.09;;;25.13;55.65
23574;BME280;11965;53.640;10.050;2023-09-08T09:50:37;101781.44;;;25.32;57.11
23574;BME280;11965;53.640;10.050;2023-09-08T09:53:08;101774.94;;;25.37;54.96
23574;BME280;11965;53.640;10.050;2023-09-08T09:55:37;101775.94;;;25.53;57.31
23574;BME280;11965;53.640;10.050;2023-09-08T09:58:05;101771.22;;;25.69;56.35
23574;BME280;11965;53.640;10.050;2023-09-08T10:00:34;101770.09;;;25.75;52.42
23574;BME280;11965;53.640;10.050;2023-09-08T10:03:04;101770.78;;;25.87;55.96
23574;BME280;11965;53.640;10.050;2023-09-08T10:05:31;101757.50;;;26.03;53.50
23574;BME280;11965;53.640;10.050;2023-09-08T10:07:58;101757.78;;;26.02;52.32
23574;BME280;11965;53.640;10.050;2023-09-08T10:10:27;101755.03;;;26.17;53.54
23574;BME280;11965;53.640;10.050;2023-09-08T10:12:57;101753.38;;;26.36;53.65
23574;BME280;11965;53.640;10.050;2023-09-08T10:15:27;101749.09;;;26.29;57.02
23574;BME280;11965;53.640;10.050;2023-09-08T10:17:56;101753.97;;;26.38;54.26
23574;BME280;11965;53.640;10.050;2023-09-08T10:20:27;101758.31;;;26.61;52.51
23574;BME280;11965;53.640;10.050;2023-09-08T10:23:05;101753.47;;;26.62;52.79
23574;BME280;11965;53.640;10.050;2023-09-08T10:25:39;101758.03;;;26.58;53.38
23574;BME280;11965;53.640;10.050;2023-09-08T10:28:09;101748.63;;;26.52;52.07
23574;BME280;11965;53.640;10.050;2023-09-08T10:30:37;101749.19;;;26.49;52.54
23574;BME280;11965;53.640;10.050;2023-09-08T10:33:08;101747.19;;;26.50;51.81
23574;BME280;11965;53.640;10.050;2023-09-08T10:35:37;101743.53;;;26.59;50.34
23574;BME280;11965;53.640;10.050;2023-09-08T10:38:26;101737.00;;;26.64;50.73
23574;BME280;11965;53.640;10.050;2023-09-08T10:41:29;101731.56;;;26.62;51.81
23574;BME280;11965;53.640;10.050;2023-09-08T10:44:02;101727.06;;;26.77;52.02
23574;BME280;11965;53.640;10.050;2023-09-08T10:46:32;101735.63;;;26.92;51.25
23574;BME280;11965;53.640;10.050;2023-09-08T10:49:02;101724.50;;;26.85;50.13
23574;BME280;11965;53.640;10.050;2023-09-08T10:51:30;101729.06;;;26.86;49.20
23574;BME280;11965;53.640;10.050;2023-09-08T10:53:57;101738.75;;;27.01;50.41
23574;BME280;11965;53.640;10.050;2023-09-08T10:56:28;101729.66;;;27.04;51.04
23574;BME280;11965;53.640;10.050;2023-09-08T10:58:59;101731.06;;;27.12;50.54
23574;BME280;11965;53.640;10.050;2023-09-08T11:01:26;101730.81;;;27.18;47.11
23574;BME280;11965;53.640;10.050;2023-09-08T11:03:54;101719.72;;;27.22;47.57
23574;BME280;11965;53.640;10.050;2023-09-08T11:06:22;101725.38;;;27.32;47.96
23574;BME280;11965;53.640;10.050;2023-09-08T11:08:50;101717.72;;;27.33;48.52
23574;BME280;11965;53.640;10.050;2023-09-08T11:11:21;101715.72;;;27.38;48.69
23574;BME280;11965;53.640;10.050;2023-09-08T11:13:48;101725.09;;;27.44;48.79
23574;BME280;11965;53.640;10.050;2023-09-08T11:16:16;101722.25;;;27.44;47.22
23574;BME280;11965;53.640;10.050;2023-09-08T11:18:47;101723.09;;;27.44;51.77
23574;BME280;11965;53.640;10.050;2023-09-08T11:21:16;101725.34;;;27.52;50.58
23574;BME280;11965;53.640;10.050;2023-09-08T11:23:43;101716.81;;;27.58;47.52
23574;BME280;11965;53.640;10.050;2023-09-08T11:26:12;101723.63;;;27.62;45.88
23574;BME280;11965;53.640;10.050;2023-09-08T11:28:41;101719.38;;;27.54;46.28
23574;BME280;11965;53.640;10.050;2023-09-08T11:31:08;101717.66;;;27.58;44.94
23574;BME280;11965;53.640;10.050;2023-09-08T11:33:36;101717.38;;;27.54;46.21
23574;BME280;11965;53.640;10.050;2023-09-08T11:36:12;101710.25;;;27.57;45.46
23574;BME280;11965;53.640;10.050;2023-09-08T11:38:43;101702.56;;;27.58;45.83
23574;BME280;11965;53.640;10.050;2023-09-08T11:41:11;101708.53;;;27.66;44.97
23574;BME280;11965;53.640;10.050;2023-09-08T11:43:38;101710.81;;;27.59;44.52
23574;BME280;11965;53.640;10.050;2023-09-08T11:46:05;101708.53;;;27.51;44.84
23574;BME280;11965;53.640;10.050;2023-09-08T11:48:32;101702.56;;;27.58;45.77
23574;BME280;11965;53.640;10.050;2023-09-08T11:51:02;101704.25;;;27.64;45.97
23574;BME280;11965;53.640;10.050;2023-09-08T11:53:29;101708.53;;;27.66;42.78
23574;BME280;11965;53.640;10.050;2023-09-08T11:55:59;101702.22;;;27.74;44.16
23574;BME280;11965;53.640;10.050;2023-09-08T11:58:26;101708.22;;;27.78;45.64
23574;BME280;11965;53.640;10.050;2023-09-08T12:00:53;101709.66;;;27.75;43.48
23574;BME280;11965;53.640;10.050;2023-09-08T12:03:20;101694.00;;;27.68;43.27
23574;BME280;11965;53.640;10.050;2023-09-08T12:05:51;101699.38;;;27.80;44.17
23574;BME280;11965;53.640;10.050;2023-09-08T12:08:20;101696.53;;;27.69;44.92
23574;BME280;11965;53.640;10.050;2023-09-08T12:10:47;101702.00;;;27.61;44.68
23574;BME280;11965;53.640;10.050;2023-09-08T12:13:20;101700.81;;;27.62;44.91
23574;BME280;11965;53.640;10.050;2023-09-08T12:15:47;101704.22;;;27.74;44.67
23574;BME280;11965;53.640;10.050;2023-09-08T12:18:14;101693.69;;;27.69;44.24
23574;BME280;11965;53.640;10.050;2023-09-08T12:20:41;101701.38;;;27.79;45.12
23574;BME280;11965;53.640;10.050;2023-09-08T12:23:16;101695.09;;;27.87;43.62
23574;BME280;11965;53.640;10.050;2023-09-08T12:25:49;101695.91;;;27.93;45.02
23574;BME280;11965;53.640;10.050;2023-09-08T12:28:17;101696.53;;;27.85;44.68
23574;BME280;11965;53.640;10.050;2023-09-08T12:30:45;101693.09;;;27.88;45.11
23574;BME280;11965;53.640;10.050;2023-09-08T12:33:13;101682.88;;;27.82;46.48
23574;BME280;11965;53.640;10.050;2023-09-08T12:35:43;101685.97;;;27.85;44.92
23574;BME280;11965;53.640;10.050;2023-09-08T12:38:10;101681.16;;;27.81;44.62
23574;BME280;11965;53.640;10.050;2023-09-08T12:40:38;101681.69;;;27.93;46.40
23574;BME280;11965;53.640;10.050;2023-09-08T12:43:06;101679.72;;;27.83;45.11